createdAt,value
2018-01-20T00:00:47.633Z,12.70
2018-01-20T00:03:15.052Z,8.93
2018-01-20T00:05:43.267Z,13.63
2018-01-20T00:08:10.732Z,11.33
2018-01-20T00:10:50.106Z,9.47
2018-01-20T00:13:17.620Z,6.50
2018-01-20T00:15:45.076Z,6.73
2018-01-20T00:18:12.532Z,10.33
2018-01-20T00:20:39.963Z,6.67
2018-01-20T00:23:07.387Z,11.23
2018-01-20T00:25:34.849Z,8.50
2018-01-20T00:28:02.279Z,11.60
2018-01-20T00:30:29.716Z,16.03
2018-01-20T00:32:57.153Z,14.60
2018-01-20T00:35:24.631Z,15.23
2018-01-20T00:37:52.054Z,17.47
2018-01-20T00:40:20.260Z,18.27
2018-01-20T00:42:47.721Z,14.47
2018-01-20T00:45:15.145Z,19.10
2018-01-20T00:47:42.648Z,18.70
2018-01-20T00:50:10.100Z,16.80
2018-01-20T00:52:37.554Z,16.23
2018-01-20T00:55:05.013Z,18.87
2018-01-20T00:57:32.440Z,16.87
2018-01-20T00:59:59.883Z,19.37
2018-01-20T01:02:28.087Z,18.27
2018-01-20T01:04:55.554Z,23.27
2018-01-20T01:07:22.986Z,25.83
2018-01-20T01:09:50.472Z,16.77
2018-01-20T01:12:17.920Z,22.50
2018-01-20T01:14:45.386Z,20.27
2018-01-20T01:17:12.825Z,26.83
2018-01-20T01:19:40.251Z,23.10
2018-01-20T01:22:08.444Z,24.27
2018-01-20T01:24:35.924Z,23.27
2018-01-20T01:27:03.356Z,26.17
2018-01-20T01:29:30.856Z,24.07
2018-01-20T01:31:58.396Z,23.83
2018-01-20T01:34:25.855Z,29.37
2018-01-20T01:36:53.288Z,27.37
2018-01-20T01:39:20.737Z,31.13
2018-01-20T01:41:48.944Z,31.87
2018-01-20T01:44:16.376Z,29.17
2018-01-20T01:46:43.860Z,31.00
2018-01-20T01:49:11.320Z,29.17
2018-01-20T01:51:38.772Z,36.50
2018-01-20T01:54:06.224Z,35.70
2018-01-20T01:56:33.688Z,41.80
2018-01-20T01:59:01.124Z,36.93
2018-01-20T02:01:28.559Z,37.23
2018-01-20T02:03:56.777Z,40.27
2018-01-20T02:06:24.203Z,49.07
2018-01-20T02:08:51.895Z,38.97
2018-01-20T02:11:19.353Z,44.13
2018-01-20T02:13:46.792Z,47.57
2018-01-20T02:16:14.262Z,46.83
2018-01-20T02:18:41.673Z,52.80
2018-01-20T02:21:09.876Z,55.73
2018-01-20T02:23:37.357Z,53.73
2018-01-20T02:26:04.787Z,51.80
2018-01-20T02:28:32.216Z,49.87
2018-01-20T02:31:00.774Z,52.97
2018-01-20T02:33:28.352Z,59.70
2018-01-20T02:35:55.764Z,60.03
2018-01-20T02:38:23.200Z,58.27
2018-01-20T02:40:50.680Z,58.70
2018-01-20T02:43:18.136Z,61.90
2018-01-20T02:45:45.585Z,65.13
2018-01-20T02:48:13.024Z,54.60
2018-01-20T02:50:40.476Z,60.90
2018-01-20T02:53:08.175Z,57.70
2018-01-20T02:55:35.600Z,52.10
2018-01-20T02:58:03.095Z,58.73
2018-01-20T03:00:30.543Z,61.47
2018-01-20T03:02:57.972Z,50.87
2018-01-20T03:05:25.408Z,55.60
2018-01-20T03:07:53.615Z,53.20
2018-01-20T03:10:21.040Z,67.43
2018-01-20T03:12:49.231Z,51.10
2018-01-20T03:15:16.720Z,47.77
2018-01-20T03:17:44.155Z,58.90
2018-01-20T03:20:11.586Z,47.30
2018-01-20T03:22:39.812Z,56.10
2018-01-20T03:25:07.279Z,57.00
2018-01-20T03:27:34.715Z,50.87
2018-01-20T03:30:02.473Z,52.30
2018-01-20T03:32:29.947Z,49.97
2018-01-20T03:34:57.383Z,58.33
2018-01-20T03:37:24.861Z,45.50
2018-01-20T03:39:52.292Z,48.57
2018-01-20T03:42:19.733Z,49.10
2018-01-20T03:44:47.943Z,53.47
2018-01-20T03:47:15.368Z,43.90
2018-01-20T03:49:43.569Z,44.20
2018-01-20T03:52:11.032Z,49.57
2018-01-20T03:54:38.492Z,42.77
2018-01-20T03:57:05.945Z,45.87
2018-01-20T03:59:33.613Z,47.30
2018-01-20T04:02:01.072Z,43.00
2018-01-20T04:04:28.499Z,38.20
2018-01-20T04:06:55.944Z,46.70
2018-01-20T04:09:24.132Z,40.67
2018-01-20T04:11:51.616Z,44.90
2018-01-20T04:14:19.375Z,46.63
2018-01-20T04:16:46.812Z,47.07
2018-01-20T04:19:14.296Z,53.87
2018-01-20T04:21:41.744Z,39.83
2018-01-20T04:24:09.208Z,43.50
2018-01-20T04:26:36.674Z,45.00
2018-01-20T04:29:04.124Z,40.07
2018-01-20T04:31:31.557Z,56.17
2018-01-20T04:33:58.976Z,50.27
2018-01-20T04:36:26.416Z,43.20
2018-01-20T04:38:53.848Z,44.20
2018-01-20T04:41:21.289Z,44.70
2018-01-20T04:43:48.728Z,50.73
2018-01-20T04:46:16.936Z,44.37
2018-01-20T04:48:44.360Z,45.00
2018-01-20T04:51:11.799Z,51.40
2018-01-20T04:53:40.000Z,43.97
2018-01-20T04:56:07.473Z,44.57
2018-01-20T04:58:35.148Z,48.40
2018-01-20T05:01:03.530Z,46.13
2018-01-20T05:03:30.955Z,45.37
2018-01-20T05:05:58.448Z,52.07
2018-01-20T05:08:25.895Z,48.20
2018-01-20T05:10:53.324Z,48.60
2018-01-20T05:13:20.804Z,48.47
2018-01-20T05:15:48.284Z,51.53
2018-01-20T05:18:15.717Z,58.37
2018-01-20T05:20:43.160Z,46.03
2018-01-20T05:23:10.648Z,45.77
2018-01-20T05:25:38.085Z,47.20
2018-01-20T05:28:05.542Z,48.77
2018-01-20T05:30:33.015Z,56.67
2018-01-20T05:33:00.472Z,44.53
2018-01-20T05:35:28.156Z,51.93
2018-01-20T05:37:55.592Z,43.33
2018-01-20T05:40:23.053Z,48.50
2018-01-20T05:42:50.492Z,53.77
2018-01-20T05:45:17.961Z,42.40
2018-01-20T05:47:45.409Z,51.57
2018-01-20T05:50:12.879Z,55.10
2018-01-20T05:52:40.336Z,48.87
2018-01-20T05:55:07.913Z,43.53
2018-01-20T05:57:35.649Z,51.03
2018-01-20T06:00:03.080Z,48.40
2018-01-20T06:02:30.578Z,42.83
2018-01-20T06:04:58.021Z,49.87
2018-01-20T06:07:25.483Z,51.93
2018-01-20T06:09:52.918Z,45.73
2018-01-20T06:12:20.396Z,56.10
2018-01-20T06:14:47.823Z,51.83
2018-01-20T06:17:15.252Z,46.40
2018-01-20T06:19:42.696Z,43.20
2018-01-20T06:22:10.160Z,41.37
2018-01-20T06:24:37.555Z,43.13
2018-01-20T06:27:05.004Z,40.73
2018-01-20T06:29:33.191Z,47.47
2018-01-20T06:32:00.672Z,44.03
2018-01-20T06:34:28.116Z,54.47
2018-01-20T06:36:55.540Z,47.40
2018-01-20T06:39:23.760Z,43.53
2018-01-20T06:41:51.497Z,49.43
2018-01-20T06:44:18.980Z,40.03
2018-01-20T06:46:46.420Z,37.83
2018-01-20T06:49:13.857Z,39.17
2018-01-20T06:51:42.048Z,44.10
2018-01-20T06:54:09.480Z,41.57
2018-01-20T06:56:38.010Z,44.00
2018-01-20T06:59:05.468Z,41.97
2018-01-20T07:01:32.891Z,34.67
2018-01-20T07:04:00.328Z,42.07
2018-01-20T07:06:28.520Z,46.87
2018-01-20T07:08:55.956Z,38.10
2018-01-20T07:11:24.170Z,46.67
2018-01-20T07:13:51.636Z,42.07
2018-01-20T07:16:19.068Z,45.13
2018-01-20T07:18:46.517Z,45.03
2018-01-20T07:21:14.713Z,52.30
2018-01-20T07:23:42.143Z,37.33
2018-01-20T07:26:10.347Z,39.70
2018-01-20T07:28:37.816Z,48.13
2018-01-20T07:31:05.239Z,39.10
2018-01-20T07:33:32.727Z,38.77
2018-01-20T07:36:00.207Z,40.03
2018-01-20T07:38:27.644Z,48.67
2018-01-20T07:40:55.108Z,39.93
2018-01-20T07:43:22.564Z,47.67
2018-01-20T07:45:49.988Z,43.63
2018-01-20T07:48:17.424Z,44.80
2018-01-20T07:50:45.620Z,49.27
2018-01-20T07:53:13.103Z,44.47
2018-01-20T07:55:40.556Z,41.20
2018-01-20T07:58:07.987Z,51.13
2018-01-20T08:00:35.414Z,39.47
2018-01-20T08:03:02.860Z,58.40
2018-01-20T08:05:30.284Z,50.73
2018-01-20T08:07:57.744Z,43.07
2018-01-20T08:10:25.531Z,35.53
2018-01-20T08:12:52.996Z,40.03
2018-01-20T08:15:20.528Z,44.33
2018-01-20T08:17:48.070Z,36.43
2018-01-20T08:20:15.536Z,48.17
2018-01-20T08:22:42.997Z,55.33
2018-01-20T08:25:10.548Z,42.83
2018-01-20T08:27:38.095Z,44.63
2018-01-20T08:30:05.587Z,47.73
2018-01-20T08:32:33.132Z,46.60
2018-01-20T08:35:00.588Z,29.70
2018-01-20T08:37:28.028Z,40.00
2018-01-20T08:39:55.483Z,36.00
2018-01-20T08:42:22.895Z,33.97
2018-01-20T08:44:51.092Z,30.77
2018-01-20T08:47:18.533Z,34.87
2018-01-20T08:49:46.744Z,29.07
2018-01-20T08:52:14.253Z,37.20
2018-01-20T08:54:41.682Z,29.57
2018-01-20T08:57:09.116Z,32.77
2018-01-20T08:59:36.884Z,32.87
2018-01-20T09:02:04.652Z,31.30
2018-01-20T09:04:32.084Z,47.80
2018-01-20T09:06:59.568Z,36.20
2018-01-20T09:09:27.006Z,34.60
2018-01-20T09:11:54.480Z,31.47
2018-01-20T09:14:21.957Z,36.87
2018-01-20T09:16:49.386Z,52.10
2018-01-20T09:19:16.812Z,39.33
2018-01-20T09:21:45.008Z,35.80
2018-01-20T09:24:12.448Z,48.43
2018-01-20T09:26:40.678Z,52.20
2018-01-20T09:29:08.113Z,47.67
2018-01-20T09:31:35.886Z,55.97
2018-01-20T09:34:03.339Z,48.63
2018-01-20T09:36:30.798Z,46.73
2018-01-20T09:38:58.237Z,42.03
2018-01-20T09:41:25.714Z,50.77
2018-01-20T09:43:53.963Z,60.43
2018-01-20T09:46:21.433Z,67.63
2018-01-20T09:48:48.842Z,45.77
2018-01-20T09:51:16.264Z,51.80
2018-01-20T09:53:44.017Z,52.33
2018-01-20T09:56:11.441Z,53.20
2018-01-20T09:58:38.891Z,53.53
2018-01-20T10:01:07.108Z,52.87
2018-01-20T10:03:34.564Z,51.83
2018-01-20T10:06:02.024Z,49.40
2018-01-20T10:08:29.482Z,51.47
2018-01-20T10:10:56.944Z,50.83
2018-01-20T10:13:24.386Z,48.30
2018-01-20T10:15:51.820Z,48.60
2018-01-20T10:18:19.252Z,54.40
2018-01-20T10:20:47.447Z,56.90
2018-01-20T10:23:14.940Z,58.90
2018-01-20T10:25:42.372Z,57.17
2018-01-20T10:28:09.895Z,48.33
2018-01-20T10:30:37.336Z,52.00
2018-01-20T10:33:04.764Z,42.00
2018-01-20T10:35:32.228Z,51.40
2018-01-20T10:37:59.680Z,46.57
2018-01-20T10:40:27.128Z,45.93
2018-01-20T10:42:54.656Z,47.90
2018-01-20T10:45:23.104Z,44.90
2018-01-20T10:47:50.538Z,49.50
2018-01-20T10:50:17.964Z,54.17
2018-01-20T10:52:45.446Z,46.60
2018-01-20T10:55:12.932Z,45.20
2018-01-20T10:57:40.362Z,44.63
2018-01-20T11:00:07.820Z,51.83
2018-01-20T11:02:37.071Z,47.97
2018-01-20T11:05:04.583Z,56.13
2018-01-20T11:07:32.033Z,53.17
2018-01-20T11:09:59.464Z,57.23
2018-01-20T11:12:26.893Z,46.97
2018-01-20T11:14:55.126Z,59.27
2018-01-20T11:17:22.560Z,54.43
2018-01-20T11:19:49.988Z,66.67
2018-01-20T11:22:18.286Z,58.63
2018-01-20T11:24:45.870Z,56.97
2018-01-20T11:27:13.333Z,48.60
2018-01-20T11:29:40.792Z,64.77
2018-01-20T11:32:08.240Z,58.33
2018-01-20T11:34:35.695Z,52.83
2018-01-20T11:37:03.468Z,52.60
2018-01-20T11:39:30.921Z,58.40
2018-01-20T11:41:58.384Z,55.70
2018-01-20T11:44:25.834Z,49.07
2018-01-20T11:46:53.296Z,48.70
2018-01-20T11:49:20.738Z,46.33
2018-01-20T11:51:48.208Z,52.97
2018-01-20T11:54:15.640Z,51.93
2018-01-20T11:56:43.065Z,45.63
2018-01-20T11:59:10.583Z,47.60
2018-01-20T12:01:38.029Z,44.77
2018-01-20T12:04:05.447Z,47.17
2018-01-20T12:06:33.764Z,43.10
2018-01-20T12:09:01.172Z,48.67
2018-01-20T12:11:29.396Z,45.63
2018-01-20T12:13:56.850Z,41.47
2018-01-20T12:16:24.272Z,41.43
2018-01-20T12:18:52.463Z,43.67
2018-01-20T12:21:19.904Z,41.50
2018-01-20T12:23:48.102Z,40.73
2018-01-20T12:26:15.528Z,39.10
2018-01-20T12:28:44.064Z,38.83
2018-01-20T12:31:11.484Z,39.67
2018-01-20T12:33:38.911Z,47.20
2018-01-20T12:36:06.352Z,39.20
2018-01-20T12:38:33.790Z,41.00
2018-01-20T12:41:01.208Z,40.60
2018-01-20T12:43:28.903Z,31.50
2018-01-20T12:45:56.340Z,38.27
2018-01-20T12:48:23.776Z,35.33
2018-01-20T12:50:51.984Z,32.00
2018-01-20T12:53:19.407Z,32.07
2018-01-20T12:55:47.614Z,31.47
2018-01-20T12:58:15.052Z,39.67
2018-01-20T13:00:42.476Z,32.63
2018-01-20T13:03:09.915Z,30.80
2018-01-20T13:05:37.452Z,32.73
2018-01-20T13:08:04.884Z,27.80
2018-01-20T13:10:32.412Z,31.93
2018-01-20T13:12:59.814Z,25.57
2018-01-20T13:15:27.288Z,28.33
2018-01-20T13:17:54.723Z,29.43
2018-01-20T13:20:22.187Z,26.40
2018-01-20T13:22:49.656Z,27.57
2018-01-20T13:25:17.111Z,23.90
2018-01-20T13:27:44.554Z,29.63
2018-01-20T13:30:12.023Z,24.13
2018-01-20T13:32:39.489Z,32.73
2018-01-20T13:35:07.032Z,26.10
2018-01-20T13:37:34.447Z,21.33
2018-01-20T13:40:02.648Z,21.33
2018-01-20T13:42:30.089Z,23.20
2018-01-20T13:44:58.283Z,23.70
2018-01-20T13:47:25.718Z,22.33
2018-01-20T13:49:53.936Z,20.93
2018-01-20T13:52:21.364Z,17.57
2018-01-20T13:54:48.796Z,19.20
2018-01-20T13:57:17.019Z,18.73
2018-01-20T13:59:44.480Z,19.00
2018-01-20T14:02:11.941Z,22.50
2018-01-20T14:04:39.384Z,18.90
2018-01-20T14:07:06.856Z,22.63
2018-01-20T14:09:34.301Z,20.93
2018-01-20T14:12:01.760Z,17.57
2018-01-20T14:14:29.225Z,19.00
2018-01-20T14:16:56.680Z,21.03
2018-01-20T14:19:24.116Z,19.10
2018-01-20T14:21:51.588Z,24.77
2018-01-20T14:24:19.020Z,16.97
2018-01-20T14:26:46.812Z,14.00
2018-01-20T14:29:14.367Z,13.70
2018-01-20T14:31:41.828Z,19.10
2018-01-20T14:34:09.294Z,13.97
2018-01-20T14:36:36.716Z,17.10
2018-01-20T14:39:04.152Z,13.23
2018-01-20T14:41:31.870Z,17.83
2018-01-20T14:43:59.291Z,16.33
2018-01-20T14:46:26.781Z,16.23
2018-01-20T14:48:54.541Z,13.93
2018-01-20T14:51:21.965Z,15.00
2018-01-20T14:53:49.387Z,15.53
2018-01-20T14:56:17.105Z,12.07
2018-01-20T14:58:44.477Z,18.17
2018-01-20T15:01:11.933Z,19.97
2018-01-20T15:03:39.379Z,20.20
2018-01-20T15:06:06.858Z,19.07
2018-01-20T15:08:34.269Z,17.77
2018-01-20T15:11:02.468Z,14.43
2018-01-20T15:13:29.939Z,14.00
2018-01-20T15:15:57.368Z,15.67
2018-01-20T15:18:25.161Z,17.27
2018-01-20T15:20:52.608Z,12.90
2018-01-20T15:23:20.043Z,11.93
2018-01-20T15:25:47.480Z,14.33
2018-01-20T15:28:15.676Z,15.20
2018-01-20T15:30:43.186Z,15.57
2018-01-20T15:33:10.631Z,15.57
2018-01-20T15:35:38.072Z,14.73
2018-01-20T15:38:05.526Z,13.73
2018-01-20T15:40:32.955Z,15.43
2018-01-20T15:43:01.139Z,13.53
2018-01-20T15:45:28.564Z,18.07
2018-01-20T15:47:56.772Z,16.47
2018-01-20T15:50:24.257Z,14.83
2018-01-20T15:52:51.679Z,16.17
2018-01-20T15:55:19.344Z,17.07
2018-01-20T15:57:46.768Z,26.13
2018-01-20T16:00:14.255Z,19.93
2018-01-20T16:02:42.459Z,21.33
2018-01-20T16:05:09.891Z,20.80
2018-01-20T16:07:37.320Z,17.57
2018-01-20T16:10:05.536Z,18.87
2018-01-20T16:12:32.969Z,23.37
2018-01-20T16:15:01.179Z,19.57
2018-01-20T16:17:28.621Z,21.67
2018-01-20T16:19:56.045Z,18.33
2018-01-20T16:22:24.268Z,24.30
2018-01-20T16:24:51.733Z,20.53
2018-01-20T16:27:19.160Z,23.03
2018-01-20T16:29:46.624Z,24.53
2018-01-20T16:32:14.820Z,27.97
2018-01-20T16:34:42.260Z,26.80
2018-01-20T16:37:09.757Z,25.90
2018-01-20T16:39:37.280Z,27.47
2018-01-20T16:42:04.793Z,27.03
2018-01-20T16:44:32.988Z,29.37
2018-01-20T16:47:00.433Z,32.60
2018-01-20T16:49:28.655Z,26.50
2018-01-20T16:51:56.113Z,25.27
2018-01-20T16:54:23.776Z,32.93
2018-01-20T16:56:51.204Z,30.97
2018-01-20T16:59:18.641Z,27.77
2018-01-20T17:01:46.856Z,29.63
2018-01-20T17:04:14.302Z,30.23
2018-01-20T17:06:41.772Z,27.67
2018-01-20T17:09:09.635Z,36.83
2018-01-20T17:11:37.042Z,33.13
2018-01-20T17:14:05.240Z,34.33
2018-01-20T17:16:32.728Z,38.03
2018-01-20T17:19:00.189Z,38.30
2018-01-20T17:21:27.613Z,41.87
2018-01-20T17:23:55.040Z,41.43
2018-01-20T17:26:22.480Z,37.23
2018-01-20T17:28:50.020Z,41.87
2018-01-20T17:31:17.477Z,45.70
2018-01-20T17:33:44.899Z,41.00
2018-01-20T17:36:12.332Z,39.90
2018-01-20T17:38:40.569Z,35.03
2018-01-20T17:41:07.988Z,41.53
2018-01-20T17:43:35.425Z,45.57
2018-01-20T17:46:03.637Z,34.93
2018-01-20T17:48:31.060Z,44.23
2018-01-20T17:50:59.256Z,54.50
2018-01-20T17:53:26.726Z,61.13
2018-01-20T17:55:54.137Z,57.23
2018-01-20T17:58:21.652Z,57.07
2018-01-20T18:00:49.095Z,72.03
2018-01-20T18:03:16.554Z,78.17
2018-01-20T18:05:44.025Z,130.37
2018-01-20T18:08:11.461Z,161.87
2018-01-20T18:10:38.892Z,142.43
2018-01-20T18:13:07.081Z,81.33
2018-01-20T18:15:34.590Z,67.53
2018-01-20T18:18:02.034Z,63.03
2018-01-20T18:20:29.494Z,58.13
2018-01-20T18:22:57.044Z,64.07
2018-01-20T18:25:24.527Z,65.10
2018-01-20T18:27:51.951Z,60.70
2018-01-20T18:30:19.409Z,62.37
2018-01-20T18:32:46.842Z,51.03
2018-01-20T18:35:14.320Z,44.77
2018-01-20T18:37:41.765Z,60.73
2018-01-20T18:40:09.198Z,57.57
2018-01-20T18:42:37.391Z,48.90
2018-01-20T18:45:04.868Z,54.57
2018-01-20T18:47:32.300Z,53.03
2018-01-20T18:49:59.739Z,52.33
2018-01-20T18:52:27.948Z,55.53
2018-01-20T18:54:55.388Z,59.60
2018-01-20T18:57:22.827Z,58.43
2018-01-20T18:59:51.035Z,56.10
2018-01-20T19:02:18.460Z,58.00
2018-01-20T19:04:46.651Z,73.20
2018-01-20T19:07:14.098Z,62.43
2018-01-20T19:09:42.304Z,52.10
2018-01-20T19:12:09.729Z,55.87
2018-01-20T19:14:37.215Z,48.23
2018-01-20T19:17:04.622Z,45.97
2018-01-20T19:19:32.056Z,57.03
2018-01-20T19:21:59.596Z,61.60
2018-01-20T19:24:27.044Z,53.50
2018-01-20T19:26:54.521Z,56.03
2018-01-20T19:29:21.956Z,77.40
2018-01-20T19:31:49.390Z,74.57
2018-01-20T19:34:16.831Z,65.90
2018-01-20T19:36:44.368Z,103.20
2018-01-20T19:39:11.805Z,54.40
2018-01-20T19:41:39.224Z,59.60
2018-01-20T19:44:06.912Z,57.13
2018-01-20T19:46:34.368Z,55.17
2018-01-20T19:49:01.808Z,62.10
2018-01-20T19:51:29.251Z,64.90
2018-01-20T19:53:56.677Z,76.90
2018-01-20T19:56:24.915Z,74.00
2018-01-20T19:58:52.390Z,72.33
2018-01-20T20:01:19.818Z,66.43
2018-01-20T20:03:47.243Z,85.17
2018-01-20T20:06:15.452Z,62.23
2018-01-20T20:08:42.884Z,78.90
2018-01-20T20:11:10.313Z,58.80
2018-01-20T20:13:38.524Z,68.47
2018-01-20T20:16:05.948Z,58.53
2018-01-20T20:18:33.464Z,61.67
2018-01-20T20:21:00.912Z,63.67
2018-01-20T20:23:28.355Z,81.00
2018-01-20T20:25:55.789Z,59.17
2018-01-20T20:28:24.332Z,57.77
2018-01-20T20:30:51.762Z,67.03
2018-01-20T20:33:19.224Z,71.30
2018-01-20T20:35:46.688Z,75.47
2018-01-20T20:38:14.150Z,59.20
2018-01-20T20:40:41.580Z,65.57
2018-01-20T20:43:09.056Z,93.47
2018-01-20T20:45:36.516Z,68.57
2018-01-20T20:48:03.968Z,84.53
2018-01-20T20:50:31.428Z,84.33
2018-01-20T20:52:58.856Z,80.10
2018-01-20T20:55:26.292Z,114.27
2018-01-20T20:57:54.615Z,84.87
2018-01-20T21:00:22.077Z,76.63
2018-01-20T21:02:49.512Z,81.73
2018-01-20T21:05:17.312Z,127.50
2018-01-20T21:07:44.748Z,84.33
2018-01-20T21:10:12.172Z,96.80
2018-01-20T21:12:40.692Z,81.67
2018-01-20T21:15:08.127Z,83.03
2018-01-20T21:17:35.612Z,92.07
2018-01-20T21:20:03.060Z,81.40
2018-01-20T21:22:30.628Z,89.40
2018-01-20T21:24:58.028Z,85.93
2018-01-20T21:27:26.232Z,93.80
2018-01-20T21:29:53.672Z,80.10
2018-01-20T21:32:21.879Z,123.20
2018-01-20T21:34:49.348Z,89.83
2018-01-20T21:37:17.628Z,104.47
2018-01-20T21:39:45.079Z,96.60
2018-01-20T21:42:12.536Z,109.57
2018-01-20T21:44:40.014Z,101.60
2018-01-20T21:47:07.504Z,114.07
2018-01-20T21:49:35.705Z,112.37
2018-01-20T21:52:03.146Z,98.53
2018-01-20T21:54:31.367Z,110.97
2018-01-20T21:56:59.116Z,99.93
2018-01-20T21:59:26.672Z,152.77
2018-01-20T22:01:54.084Z,94.40
2018-01-20T22:04:22.616Z,90.40
2018-01-20T22:06:50.076Z,90.53
2018-01-20T22:09:17.532Z,92.10
2018-01-20T22:11:45.391Z,68.00
2018-01-20T22:14:12.860Z,70.30
2018-01-20T22:16:40.317Z,69.47
2018-01-20T22:19:07.768Z,65.57
2018-01-20T22:21:35.232Z,65.03
2018-01-20T22:24:02.656Z,64.20
2018-01-20T22:26:30.407Z,57.87
2018-01-20T22:28:58.666Z,61.77
2018-01-20T22:31:26.092Z,60.07
2018-01-20T22:33:53.653Z,54.57
2018-01-20T22:36:21.071Z,64.57
2018-01-20T22:38:48.504Z,54.27
2018-01-20T22:41:16.732Z,56.67
2018-01-20T22:43:44.179Z,55.13
2018-01-20T22:46:11.614Z,79.83
2018-01-20T22:48:39.052Z,59.77
2018-01-20T22:51:07.275Z,61.03
2018-01-20T22:53:34.708Z,50.03
2018-01-20T22:56:02.472Z,50.53
2018-01-20T22:58:29.904Z,56.07
2018-01-20T23:01:03.428Z,44.83
2018-01-20T23:03:30.877Z,52.10
2018-01-20T23:05:58.286Z,47.47
2018-01-20T23:08:25.728Z,51.93
2018-01-20T23:10:53.168Z,49.63
2018-01-20T23:13:20.608Z,32.03
2018-01-20T23:15:48.049Z,31.33
2018-01-20T23:18:15.534Z,29.40
2018-01-20T23:20:42.969Z,33.03
2018-01-20T23:23:10.412Z,22.43
2018-01-20T23:25:37.836Z,17.37
2018-01-20T23:28:05.263Z,22.50
2018-01-20T23:30:32.812Z,20.13
2018-01-20T23:33:00.240Z,15.93
2018-01-20T23:35:27.735Z,17.83
2018-01-20T23:37:55.492Z,14.53
2018-01-20T23:40:22.926Z,14.10
2018-01-20T23:42:50.404Z,15.10
2018-01-20T23:45:17.864Z,18.87
2018-01-20T23:47:45.324Z,21.50
2018-01-20T23:50:12.745Z,17.00
2018-01-20T23:52:40.180Z,17.07
2018-01-20T23:55:08.372Z,16.67
2018-01-20T23:57:36.560Z,18.50
